sensor_id;sensor_type;location;lat;lon;timestamp;temperature;humidity
78571;SHT31;67861;51.966;5.672;2023-04-16T00:01:13;12.7;65.8
78571;SHT31;67861;51.966;5.672;2023-04-16T00:03:46;12.8;65.3
78571;SHT31;67861;51.966;5.672;2023-04-16T00:06:15;12.8;65.2
78571;SHT31;67861;51.966;5.672;2023-04-16T00:08:45;12.8;64.8
78571;SHT31;67861;51.966;5.672;2023-04-16T00:11:15;12.8;65.1
78571;SHT31;67861;51.966;5.672;2023-04-16T00:13:44;12.8;65.2
78571;SHT31;67861;51.966;5.672;2023-04-16T00:16:14;12.8;65.3
78571;SHT31;67861;51.966;5.672;2023-04-16T00:18:45;12.7;65.3
78571;SHT31;67861;51.966;5.672;2023-04-16T00:21:15;12.7;65.4
78571;SHT31;67861;51.966;5.672;2023-04-16T00:23:44;12.7;65.5
78571;SHT31;67861;51.966;5.672;2023-04-16T00:26:16;12.7;65.9
78571;SHT31;67861;51.966;5.672;2023-04-16T00:28:46;12.7;65.7
78571;SHT31;67861;51.966;5.672;2023-04-16T00:31:15;12.7;66.1
78571;SHT31;67861;51.966;5.672;2023-04-16T00:33:45;12.7;66.2
78571;SHT31;67861;51.966;5.672;2023-04-16T00:36:14;12.7;66.3
78571;SHT31;67861;51.966;5.672;2023-04-16T00:38:44;12.6;66.6
78571;SHT31;67861;51.966;5.672;2023-04-16T00:41:13;12.6;66.5
78571;SHT31;67861;51.966;5.672;2023-04-16T00:43:49;12.6;66.6
78571;SHT31;67861;51.966;5.672;2023-04-16T00:46:21;12.6;66.9
78571;SHT31;67861;51.966;5.672;2023-04-16T00:48:53;12.6;67.0
78571;SHT31;67861;51.966;5.672;2023-04-16T00:51:25;12.6;67.0
78571;SHT31;67861;51.966;5.672;2023-04-16T00:53:56;12.6;67.0
78571;SHT31;67861;51.966;5.672;2023-04-16T00:56:26;12.6;67.0
78571;SHT31;67861;51.966;5.672;2023-04-16T00:58:56;12.6;67.3
78571;SHT31;67861;51.966;5.672;2023-04-16T01:01:27;12.6;67.4
78571;SHT31;67861;51.966;5.672;2023-04-16T01:03:57;12.6;67.4
78571;SHT31;67861;51.966;5.672;2023-04-16T01:06:27;12.6;67.4
78571;SHT31;67861;51.966;5.672;2023-04-16T01:08:56;12.5;67.7
78571;SHT31;67861;51.966;5.672;2023-04-16T01:11:26;12.5;67.8
78571;SHT31;67861;51.966;5.672;2023-04-16T01:13:56;12.5;67.8
78571;SHT31;67861;51.966;5.672;2023-04-16T01:16:25;12.5;67.9
78571;SHT31;67861;51.966;5.672;2023-04-16T01:18:55;12.5;67.8
78571;SHT31;67861;51.966;5.672;2023-04-16T01:21:24;12.5;68.0
78571;SHT31;67861;51.966;5.672;2023-04-16T01:23:54;12.5;68.4
78571;SHT31;67861;51.966;5.672;2023-04-16T01:26:24;12.6;68.3
78571;SHT31;67861;51.966;5.672;2023-04-16T01:28:55;12.7;67.6
78571;SHT31;67861;51.966;5.672;2023-04-16T01:31:25;12.8;67.2
78571;SHT31;67861;51.966;5.672;2023-04-16T01:33:54;12.8;66.9
78571;SHT31;67861;51.966;5.672;2023-04-16T01:36:24;12.8;67.1
78571;SHT31;67861;51.966;5.672;2023-04-16T01:38:53;12.8;67.0
78571;SHT31;67861;51.966;5.672;2023-04-16T01:41:23;12.7;67.1
78571;SHT31;67861;51.966;5.672;2023-04-16T01:43:55;12.7;67.2
78571;SHT31;67861;51.966;5.672;2023-04-16T01:46:27;12.7;67.2
78571;SHT31;67861;51.966;5.672;2023-04-16T01:48:59;12.7;67.5
78571;SHT31;67861;51.966;5.672;2023-04-16T01:51:29;12.7;67.5
78571;SHT31;67861;51.966;5.672;2023-04-16T01:54:01;12.7;67.6
78571;SHT31;67861;51.966;5.672;2023-04-16T01:56:31;12.7;67.7
78571;SHT31;67861;51.966;5.672;2023-04-16T01:59:01;12.6;67.6
78571;SHT31;67861;51.966;5.672;2023-04-16T02:01:30;12.6;67.6
78571;SHT31;67861;51.966;5.672;2023-04-16T02:04:03;12.6;67.6
78571;SHT31;67861;51.966;5.672;2023-04-16T02:06:32;12.6;67.9
78571;SHT31;67861;51.966;5.672;2023-04-16T02:09:02;12.6;67.8
78571;SHT31;67861;51.966;5.672;2023-04-16T02:11:32;12.6;67.7
78571;SHT31;67861;51.966;5.672;2023-04-16T02:14:01;12.6;68.1
78571;SHT31;67861;51.966;5.672;2023-04-16T02:16:31;12.6;67.8
78571;SHT31;67861;51.966;5.672;2023-04-16T02:19:00;12.6;67.7
78571;SHT31;67861;51.966;5.672;2023-04-16T02:21:32;12.6;67.8
78571;SHT31;67861;51.966;5.672;2023-04-16T02:24:05;12.6;67.9
78571;SHT31;67861;51.966;5.672;2023-04-16T02:26:35;12.6;67.9
78571;SHT31;67861;51.966;5.672;2023-04-16T02:29:04;12.6;67.9
78571;SHT31;67861;51.966;5.672;2023-04-16T02:31:36;12.6;68.2
78571;SHT31;67861;51.966;5.672;2023-04-16T02:34:05;12.6;67.9
78571;SHT31;67861;51.966;5.672;2023-04-16T02:36:37;12.6;68.0
78571;SHT31;67861;51.966;5.672;2023-04-16T02:39:07;12.6;68.3
78571;SHT31;67861;51.966;5.672;2023-04-16T02:41:36;12.6;68.0
78571;SHT31;67861;51.966;5.672;2023-04-16T02:44:06;12.6;67.9
78571;SHT31;67861;51.966;5.672;2023-04-16T02:46:36;12.6;67.9
78571;SHT31;67861;51.966;5.672;2023-04-16T02:49:05;12.6;68.1
78571;SHT31;67861;51.966;5.672;2023-04-16T02:51:35;12.7;68.1
78571;SHT31;67861;51.966;5.672;2023-04-16T02:54:04;12.8;67.5
78571;SHT31;67861;51.966;5.672;2023-04-16T02:56:34;12.9;66.8
78571;SHT31;67861;51.966;5.672;2023-04-16T02:59:07;13.0;66.7
78571;SHT31;67861;51.966;5.672;2023-04-16T03:01:36;13.0;66.4
78571;SHT31;67861;51.966;5.672;2023-04-16T03:04:06;13.0;66.4
78571;SHT31;67861;51.966;5.672;2023-04-16T03:06:35;13.0;66.3
78571;SHT31;67861;51.966;5.672;2023-04-16T03:09:05;13.0;66.2
78571;SHT31;67861;51.966;5.672;2023-04-16T03:11:34;13.0;66.5
78571;SHT31;67861;51.966;5.672;2023-04-16T03:14:04;13.0;66.2
78571;SHT31;67861;51.966;5.672;2023-04-16T03:16:33;13.0;66.3
78571;SHT31;67861;51.966;5.672;2023-04-16T03:19:03;13.0;66.7
78571;SHT31;67861;51.966;5.672;2023-04-16T03:21:33;13.0;66.6
78571;SHT31;67861;51.966;5.672;2023-04-16T03:24:02;12.9;66.6
78571;SHT31;67861;51.966;5.672;2023-04-16T03:26:32;12.9;66.6
78571;SHT31;67861;51.966;5.672;2023-04-16T03:29:02;12.9;66.9
78571;SHT31;67861;51.966;5.672;2023-04-16T03:31:31;12.9;67.0
78571;SHT31;67861;51.966;5.672;2023-04-16T03:34:01;12.9;66.9
78571;SHT31;67861;51.966;5.672;2023-04-16T03:36:30;12.9;66.8
78571;SHT31;67861;51.966;5.672;2023-04-16T03:39:00;12.9;67.0
78571;SHT31;67861;51.966;5.672;2023-04-16T03:41:30;12.9;67.2
78571;SHT31;67861;51.966;5.672;2023-04-16T03:44:00;12.8;67.0
78571;SHT31;67861;51.966;5.672;2023-04-16T03:46:29;12.8;67.3
78571;SHT31;67861;51.966;5.672;2023-04-16T03:48:59;12.8;67.2
78571;SHT31;67861;51.966;5.672;2023-04-16T03:51:28;12.8;67.1
78571;SHT31;67861;51.966;5.672;2023-04-16T03:53:58;12.8;67.0
78571;SHT31;67861;51.966;5.672;2023-04-16T03:56:27;12.8;67.2
78571;SHT31;67861;51.966;5.672;2023-04-16T03:58:57;12.8;67.3
78571;SHT31;67861;51.966;5.672;2023-04-16T04:01:27;12.8;67.2
78571;SHT31;67861;51.966;5.672;2023-04-16T04:03:56;12.8;67.4
78571;SHT31;67861;51.966;5.672;2023-04-16T04:06:26;12.7;67.5
78571;SHT31;67861;51.966;5.672;2023-04-16T04:08:56;12.7;67.4
78571;SHT31;67861;51.966;5.672;2023-04-16T04:11:25;12.7;67.4
78571;SHT31;67861;51.966;5.672;2023-04-16T04:13:57;12.7;67.5
78571;SHT31;67861;51.966;5.672;2023-04-16T04:16:32;12.8;68.0
78571;SHT31;67861;51.966;5.672;2023-04-16T04:19:04;12.9;67.7
78571;SHT31;67861;51.966;5.672;2023-04-16T04:21:34;13.0;66.9
78571;SHT31;67861;51.966;5.672;2023-04-16T04:24:03;13.0;66.6
78571;SHT31;67861;51.966;5.672;2023-04-16T04:26:33;13.0;66.4
78571;SHT31;67861;51.966;5.672;2023-04-16T04:29:02;13.0;66.3
78571;SHT31;67861;51.966;5.672;2023-04-16T04:31:32;13.0;66.5
78571;SHT31;67861;51.966;5.672;2023-04-16T04:34:02;13.0;66.3
78571;SHT31;67861;51.966;5.672;2023-04-16T04:36:31;13.0;66.6
78571;SHT31;67861;51.966;5.672;2023-04-16T04:39:01;12.9;66.6
78571;SHT31;67861;51.966;5.672;2023-04-16T04:41:30;12.9;66.8
78571;SHT31;67861;51.966;5.672;2023-04-16T04:44:00;12.9;66.7
78571;SHT31;67861;51.966;5.672;2023-04-16T04:46:29;12.8;66.9
78571;SHT31;67861;51.966;5.672;2023-04-16T04:49:02;12.8;66.8
78571;SHT31;67861;51.966;5.672;2023-04-16T04:51:32;12.8;67.1
78571;SHT31;67861;51.966;5.672;2023-04-16T04:54:01;12.8;67.4
78571;SHT31;67861;51.966;5.672;2023-04-16T04:56:32;12.8;67.3
78571;SHT31;67861;51.966;5.672;2023-04-16T04:59:02;12.8;67.2
78571;SHT31;67861;51.966;5.672;2023-04-16T05:01:32;12.7;67.3
78571;SHT31;67861;51.966;5.672;2023-04-16T05:04:02;12.7;67.5
78571;SHT31;67861;51.966;5.672;2023-04-16T05:06:31;12.7;67.7
78571;SHT31;67861;51.966;5.672;2023-04-16T05:09:01;12.6;68.0
78571;SHT31;67861;51.966;5.672;2023-04-16T05:11:32;12.6;68.0
78571;SHT31;67861;51.966;5.672;2023-04-16T05:14:02;12.6;68.1
78571;SHT31;67861;51.966;5.672;2023-04-16T05:16:35;12.6;68.2
78571;SHT31;67861;51.966;5.672;2023-04-16T05:19:05;12.6;68.2
78571;SHT31;67861;51.966;5.672;2023-04-16T05:21:35;12.6;68.3
78571;SHT31;67861;51.966;5.672;2023-04-16T05:24:05;12.6;68.6
78571;SHT31;67861;51.966;5.672;2023-04-16T05:26:34;12.6;68.6
78571;SHT31;67861;51.966;5.672;2023-04-16T05:29:04;12.6;68.5
78571;SHT31;67861;51.966;5.672;2023-04-16T05:31:35;12.6;68.6
78571;SHT31;67861;51.966;5.672;2023-04-16T05:34:05;12.6;68.3
78571;SHT31;67861;51.966;5.672;2023-04-16T05:36:34;12.6;68.4
78571;SHT31;67861;51.966;5.672;2023-04-16T05:39:04;12.6;68.4
78571;SHT31;67861;51.966;5.672;2023-04-16T05:41:34;12.6;68.4
78571;SHT31;67861;51.966;5.672;2023-04-16T05:44:03;12.7;68.6
78571;SHT31;67861;51.966;5.672;2023-04-16T05:46:33;12.8;68.4
78571;SHT31;67861;51.966;5.672;2023-04-16T05:49:02;12.9;67.5
78571;SHT31;67861;51.966;5.672;2023-04-16T05:51:32;12.9;67.2
78571;SHT31;67861;51.966;5.672;2023-04-16T05:54:02;12.9;67.1
78571;SHT31;67861;51.966;5.672;2023-04-16T05:56:32;13.0;66.9
78571;SHT31;67861;51.966;5.672;2023-04-16T05:59:01;13.0;66.9
78571;SHT31;67861;51.966;5.672;2023-04-16T06:01:36;13.0;66.9
78571;SHT31;67861;51.966;5.672;2023-04-16T06:04:06;13.0;67.0
78571;SHT31;67861;51.966;5.672;2023-04-16T06:06:38;13.0;66.9
78571;SHT31;67861;51.966;5.672;2023-04-16T06:09:08;13.0;67.1
78571;SHT31;67861;51.966;5.672;2023-04-16T06:11:37;13.0;67.2
78571;SHT31;67861;51.966;5.672;2023-04-16T06:14:10;13.0;67.1
78571;SHT31;67861;51.966;5.672;2023-04-16T06:16:39;13.0;67.1
78571;SHT31;67861;51.966;5.672;2023-04-16T06:19:09;13.0;67.1
78571;SHT31;67861;51.966;5.672;2023-04-16T06:21:39;13.0;67.2
78571;SHT31;67861;51.966;5.672;2023-04-16T06:24:08;13.0;67.1
78571;SHT31;67861;51.966;5.672;2023-04-16T06:26:38;13.0;67.2
78571;SHT31;67861;51.966;5.672;2023-04-16T06:29:07;12.9;67.1
78571;SHT31;67861;51.966;5.672;2023-04-16T06:31:38;12.9;67.2
78571;SHT31;67861;51.966;5.672;2023-04-16T06:34:08;12.9;67.2
78571;SHT31;67861;51.966;5.672;2023-04-16T06:36:37;12.9;67.4
78571;SHT31;67861;51.966;5.672;2023-04-16T06:39:07;12.9;67.5
78571;SHT31;67861;51.966;5.672;2023-04-16T06:41:36;12.9;67.7
78571;SHT31;67861;51.966;5.672;2023-04-16T06:44:06;12.9;67.7
78571;SHT31;67861;51.966;5.672;2023-04-16T06:46:36;12.9;67.7
78571;SHT31;67861;51.966;5.672;2023-04-16T06:49:05;12.9;67.5
78571;SHT31;67861;51.966;5.672;2023-04-16T06:51:35;12.9;67.6
78571;SHT31;67861;51.966;5.672;2023-04-16T06:54:04;12.9;67.5
78571;SHT31;67861;51.966;5.672;2023-04-16T06:56:34;12.9;67.6
78571;SHT31;67861;51.966;5.672;2023-04-16T06:59:04;12.9;67.8
78571;SHT31;67861;51.966;5.672;2023-04-16T07:01:35;12.9;67.7
78571;SHT31;67861;51.966;5.672;2023-04-16T07:04:05;12.9;67.8
78571;SHT31;67861;51.966;5.672;2023-04-16T07:06:36;13.0;67.5
78571;SHT31;67861;51.966;5.672;2023-04-16T07:09:05;13.0;67.7
78571;SHT31;67861;51.966;5.672;2023-04-16T07:11:36;13.1;67.5
78571;SHT31;67861;51.966;5.672;2023-04-16T07:14:06;13.3;67.0
78571;SHT31;67861;51.966;5.672;2023-04-16T07:16:35;13.3;66.6
78571;SHT31;67861;51.966;5.672;2023-04-16T07:19:06;13.3;66.3
78571;SHT31;67861;51.966;5.672;2023-04-16T07:21:38;13.4;66.2
78571;SHT31;67861;51.966;5.672;2023-04-16T07:24:09;13.4;65.9
78571;SHT31;67861;51.966;5.672;2023-04-16T07:26:39;13.4;65.8
78571;SHT31;67861;51.966;5.672;2023-04-16T07:29:08;13.4;66.0
78571;SHT31;67861;51.966;5.672;2023-04-16T07:31:38;13.4;65.8
78571;SHT31;67861;51.966;5.672;2023-04-16T07:34:10;13.4;66.1
78571;SHT31;67861;51.966;5.672;2023-04-16T07:36:40;13.4;66.1
78571;SHT31;67861;51.966;5.672;2023-04-16T07:39:10;13.4;65.9
78571;SHT31;67861;51.966;5.672;2023-04-16T07:41:39;13.4;65.8
78571;SHT31;67861;51.966;5.672;2023-04-16T07:44:09;13.4;65.8
78571;SHT31;67861;51.966;5.672;2023-04-16T07:46:39;13.4;65.8
78571;SHT31;67861;51.966;5.672;2023-04-16T07:49:12;13.4;65.7
78571;SHT31;67861;51.966;5.672;2023-04-16T07:51:42;13.4;65.7
78571;SHT31;67861;51.966;5.672;2023-04-16T07:54:11;13.5;65.8
78571;SHT31;67861;51.966;5.672;2023-04-16T07:56:41;13.5;66.0
78571;SHT31;67861;51.966;5.672;2023-04-16T07:59:10;13.5;65.9
78571;SHT31;67861;51.966;5.672;2023-04-16T08:01:40;13.5;65.7
78571;SHT31;67861;51.966;5.672;2023-04-16T08:04:10;13.4;65.8
78571;SHT31;67861;51.966;5.672;2023-04-16T08:06:40;13.4;66.0
78571;SHT31;67861;51.966;5.672;2023-04-16T08:09:09;13.4;66.1
78571;SHT31;67861;51.966;5.672;2023-04-16T08:11:39;13.4;66.3
78571;SHT31;67861;51.966;5.672;2023-04-16T08:14:09;13.4;66.6
78571;SHT31;67861;51.966;5.672;2023-04-16T08:16:38;13.4;66.4
78571;SHT31;67861;51.966;5.672;2023-04-16T08:19:08;13.4;66.6
78571;SHT31;67861;51.966;5.672;2023-04-16T08:21:38;13.4;66.6
78571;SHT31;67861;51.966;5.672;2023-04-16T08:24:08;13.4;66.9
78571;SHT31;67861;51.966;5.672;2023-04-16T08:26:38;13.4;66.4
78571;SHT31;67861;51.966;5.672;2023-04-16T08:29:07;13.5;66.5
78571;SHT31;67861;51.966;5.672;2023-04-16T08:31:37;13.5;66.4
78571;SHT31;67861;51.966;5.672;2023-04-16T08:34:06;13.5;66.7
78571;SHT31;67861;51.966;5.672;2023-04-16T08:36:38;13.5;67.2
78571;SHT31;67861;51.966;5.672;2023-04-16T08:39:08;13.6;66.7
78571;SHT31;67861;51.966;5.672;2023-04-16T08:41:42;13.8;66.1
78571;SHT31;67861;51.966;5.672;2023-04-16T08:44:17;13.8;65.2
78571;SHT31;67861;51.966;5.672;2023-04-16T08:46:48;13.9;64.8
78571;SHT31;67861;51.966;5.672;2023-04-16T08:49:21;13.9;64.4
78571;SHT31;67861;51.966;5.672;2023-04-16T08:51:53;13.9;64.5
78571;SHT31;67861;51.966;5.672;2023-04-16T08:54:41;13.9;64.4
78571;SHT31;67861;51.966;5.672;2023-04-16T08:57:18;13.9;64.3
78571;SHT31;67861;51.966;5.672;2023-04-16T08:59:50;13.9;64.5
78571;SHT31;67861;51.966;5.672;2023-04-16T09:02:25;13.9;64.3
78571;SHT31;67861;51.966;5.672;2023-04-16T09:04:55;13.9;64.5
78571;SHT31;67861;51.966;5.672;2023-04-16T09:07:28;13.9;64.7
78571;SHT31;67861;51.966;5.672;2023-04-16T09:10:02;13.9;64.7
78571;SHT31;67861;51.966;5.672;2023-04-16T09:12:32;13.9;65.0
78571;SHT31;67861;51.966;5.672;2023-04-16T09:15:01;14.0;65.1
78571;SHT31;67861;51.966;5.672;2023-04-16T09:17:35;14.0;64.5
78571;SHT31;67861;51.966;5.672;2023-04-16T09:20:06;14.0;64.4
78571;SHT31;67861;51.966;5.672;2023-04-16T09:22:38;14.0;64.6
78571;SHT31;67861;51.966;5.672;2023-04-16T09:25:08;14.1;64.4
78571;SHT31;67861;51.966;5.672;2023-04-16T09:27:43;14.1;64.5
78571;SHT31;67861;51.966;5.672;2023-04-16T09:30:21;14.1;64.4
78571;SHT31;67861;51.966;5.672;2023-04-16T09:33:12;14.1;64.1
78571;SHT31;67861;51.966;5.672;2023-04-16T09:35:47;14.2;64.2
78571;SHT31;67861;51.966;5.672;2023-04-16T09:38:18;14.2;64.4
78571;SHT31;67861;51.966;5.672;2023-04-16T09:41:06;14.2;64.0
78571;SHT31;67861;51.966;5.672;2023-04-16T09:43:36;14.3;63.4
78571;SHT31;67861;51.966;5.672;2023-04-16T09:46:05;14.3;63.4
78571;SHT31;67861;51.966;5.672;2023-04-16T09:48:35;14.4;63.2
78571;SHT31;67861;51.966;5.672;2023-04-16T09:51:05;14.4;63.3
78571;SHT31;67861;51.966;5.672;2023-04-16T09:53:35;14.4;63.8
78571;SHT31;67861;51.966;5.672;2023-04-16T09:56:06;14.4;63.4
78571;SHT31;67861;51.966;5.672;2023-04-16T09:58:36;14.5;63.5
78571;SHT31;67861;51.966;5.672;2023-04-16T10:01:08;14.5;63.2
78571;SHT31;67861;51.966;5.672;2023-04-16T10:03:39;14.6;63.1
78571;SHT31;67861;51.966;5.672;2023-04-16T10:06:14;14.7;63.5
78571;SHT31;67861;51.966;5.672;2023-04-16T10:08:46;14.7;62.3
78571;SHT31;67861;51.966;5.672;2023-04-16T10:11:17;14.8;61.8
78571;SHT31;67861;51.966;5.672;2023-04-16T10:13:49;14.9;60.5
78571;SHT31;67861;51.966;5.672;2023-04-16T10:16:21;14.9;60.8
78571;SHT31;67861;51.966;5.672;2023-04-16T10:18:52;14.9;60.8
78571;SHT31;67861;51.966;5.672;2023-04-16T10:21:22;14.9;61.1
78571;SHT31;67861;51.966;5.672;2023-04-16T10:24:02;15.0;60.6
78571;SHT31;67861;51.966;5.672;2023-04-16T10:26:32;15.0;60.8
78571;SHT31;67861;51.966;5.672;2023-04-16T10:29:07;15.0;61.0
78571;SHT31;67861;51.966;5.672;2023-04-16T10:31:38;15.0;60.9
78571;SHT31;67861;51.966;5.672;2023-04-16T10:34:09;15.1;60.6
78571;SHT31;67861;51.966;5.672;2023-04-16T10:36:39;15.1;60.7
78571;SHT31;67861;51.966;5.672;2023-04-16T10:39:11;15.1;60.3
78571;SHT31;67861;51.966;5.672;2023-04-16T10:41:42;15.2;59.9
78571;SHT31;67861;51.966;5.672;2023-04-16T10:44:11;15.2;60.1
78571;SHT31;67861;51.966;5.672;2023-04-16T10:46:42;15.2;59.5
78571;SHT31;67861;51.966;5.672;2023-04-16T10:49:17;15.3;60.1
78571;SHT31;67861;51.966;5.672;2023-04-16T10:51:57;15.3;60.1
78571;SHT31;67861;51.966;5.672;2023-04-16T10:54:28;15.3;59.2
78571;SHT31;67861;51.966;5.672;2023-04-16T10:57:03;15.4;59.8
78571;SHT31;67861;51.966;5.672;2023-04-16T10:59:34;15.4;60.1
78571;SHT31;67861;51.966;5.672;2023-04-16T11:02:11;15.5;60.0
78571;SHT31;67861;51.966;5.672;2023-04-16T11:04:43;15.5;58.7
78571;SHT31;67861;51.966;5.672;2023-04-16T11:07:17;15.6;59.5
78571;SHT31;67861;51.966;5.672;2023-04-16T11:09:55;15.6;59.8
78571;SHT31;67861;51.966;5.672;2023-04-16T11:12:34;15.6;58.8
78571;SHT31;67861;51.966;5.672;2023-04-16T11:15:05;15.7;58.2
78571;SHT31;67861;51.966;5.672;2023-04-16T11:17:41;15.7;57.8
78571;SHT31;67861;51.966;5.672;2023-04-16T11:20:20;15.7;58.0
78571;SHT31;67861;51.966;5.672;2023-04-16T11:22:51;15.7;58.9
78571;SHT31;67861;51.966;5.672;2023-04-16T11:25:23;15.7;58.7
78571;SHT31;67861;51.966;5.672;2023-04-16T11:27:53;15.7;59.1
78571;SHT31;67861;51.966;5.672;2023-04-16T11:30:32;15.8;58.5
78571;SHT31;67861;51.966;5.672;2023-04-16T11:33:04;16.0;59.1
78571;SHT31;67861;51.966;5.672;2023-04-16T11:35:34;16.0;58.6
78571;SHT31;67861;51.966;5.672;2023-04-16T11:38:05;16.1;57.7
78571;SHT31;67861;51.966;5.672;2023-04-16T11:40:35;16.1;58.0
78571;SHT31;67861;51.966;5.672;2023-04-16T11:43:13;16.2;58.0
78571;SHT31;67861;51.966;5.672;2023-04-16T11:45:55;16.2;57.4
78571;SHT31;67861;51.966;5.672;2023-04-16T11:48:46;16.3;57.2
78571;SHT31;67861;51.966;5.672;2023-04-16T11:51:17;16.3;57.5
78571;SHT31;67861;51.966;5.672;2023-04-16T11:53:50;16.4;57.3
78571;SHT31;67861;51.966;5.672;2023-04-16T11:56:32;16.4;57.3
78571;SHT31;67861;51.966;5.672;2023-04-16T11:59:16;16.5;57.0
78571;SHT31;67861;51.966;5.672;2023-04-16T12:01:48;16.5;56.5
78571;SHT31;67861;51.966;5.672;2023-04-16T12:04:18;16.5;57.2
78571;SHT31;67861;51.966;5.672;2023-04-16T12:07:08;16.5;56.2
78571;SHT31;67861;51.966;5.672;2023-04-16T12:09:39;16.6;56.1
78571;SHT31;67861;51.966;5.672;2023-04-16T12:12:26;16.6;56.6
78571;SHT31;67861;51.966;5.672;2023-04-16T12:14:57;16.6;56.3
78571;SHT31;67861;51.966;5.672;2023-04-16T12:17:31;16.5;56.2
78571;SHT31;67861;51.966;5.672;2023-04-16T12:20:07;16.5;56.2
78571;SHT31;67861;51.966;5.672;2023-04-16T12:22:46;16.5;55.6
78571;SHT31;67861;51.966;5.672;2023-04-16T12:25:23;16.4;56.1
78571;SHT31;67861;51.966;5.672;2023-04-16T12:27:56;16.4;56.1
78571;SHT31;67861;51.966;5.672;2023-04-16T12:30:26;16.4;56.6
78571;SHT31;67861;51.966;5.672;2023-04-16T12:33:15;16.4;56.7
78571;SHT31;67861;51.966;5.672;2023-04-16T12:35:47;16.3;57.2
78571;SHT31;67861;51.966;5.672;2023-04-16T12:38:17;16.3;57.1
78571;SHT31;67861;51.966;5.672;2023-04-16T12:40:47;16.3;56.8
78571;SHT31;67861;51.966;5.672;2023-04-16T12:43:19;16.2;56.8
78571;SHT31;67861;51.966;5.672;2023-04-16T12:45:48;16.2;57.0
78571;SHT31;67861;51.966;5.672;2023-04-16T12:48:18;16.2;57.9
78571;SHT31;67861;51.966;5.672;2023-04-16T12:50:48;16.1;57.8
78571;SHT31;67861;51.966;5.672;2023-04-16T12:53:21;16.2;57.5
78571;SHT31;67861;51.966;5.672;2023-04-16T12:55:55;16.2;58.3
78571;SHT31;67861;51.966;5.672;2023-04-16T12:58:26;16.3;57.2
78571;SHT31;67861;51.966;5.672;2023-04-16T13:00:55;16.3;57.0
78571;SHT31;67861;51.966;5.672;2023-04-16T13:03:26;16.3;56.5
78571;SHT31;67861;51.966;5.672;2023-04-16T13:05:57;16.3;56.6
78571;SHT31;67861;51.966;5.672;2023-04-16T13:08:30;16.3;56.8
78571;SHT31;67861;51.966;5.672;2023-04-16T13:10:59;16.3;57.3
78571;SHT31;67861;51.966;5.672;2023-04-16T13:13:31;16.3;56.8
78571;SHT31;67861;51.966;5.672;2023-04-16T13:16:01;16.3;57.6
78571;SHT31;67861;51.966;5.672;2023-04-16T13:18:35;16.3;57.5
78571;SHT31;67861;51.966;5.672;2023-04-16T13:21:07;16.3;57.1
78571;SHT31;67861;51.966;5.672;2023-04-16T13:23:36;16.4;57.3
78571;SHT31;67861;51.966;5.672;2023-04-16T13:26:06;16.4;57.1
78571;SHT31;67861;51.966;5.672;2023-04-16T13:28:38;16.4;56.7
78571;SHT31;67861;51.966;5.672;2023-04-16T13:31:08;16.4;57.1
78571;SHT31;67861;51.966;5.672;2023-04-16T13:33:38;16.5;57.1
78571;SHT31;67861;51.966;5.672;2023-04-16T13:36:10;16.5;57.1
78571;SHT31;67861;51.966;5.672;2023-04-16T13:38:39;16.5;57.2
78571;SHT31;67861;51.966;5.672;2023-04-16T13:41:09;16.5;57.6
78571;SHT31;67861;51.966;5.672;2023-04-16T13:43:40;16.6;56.9
78571;SHT31;67861;51.966;5.672;2023-04-16T13:46:10;16.6;55.7
78571;SHT31;67861;51.966;5.672;2023-04-16T13:48:40;16.7;56.0
78571;SHT31;67861;51.966;5.672;2023-04-16T13:51:09;16.7;56.5
78571;SHT31;67861;51.966;5.672;2023-04-16T13:53:41;16.7;55.3
78571;SHT31;67861;51.966;5.672;2023-04-16T13:56:11;16.7;56.5
78571;SHT31;67861;51.966;5.672;2023-04-16T13:58:40;16.8;55.9
78571;SHT31;67861;51.966;5.672;2023-04-16T14:01:12;16.8;55.7
78571;SHT31;67861;51.966;5.672;2023-04-16T14:03:42;16.8;55.5
78571;SHT31;67861;51.966;5.672;2023-04-16T14:06:11;16.9;55.6
78571;SHT31;67861;51.966;5.672;2023-04-16T14:08:44;16.9;54.7
78571;SHT31;67861;51.966;5.672;2023-04-16T14:11:15;16.9;54.3
78571;SHT31;67861;51.966;5.672;2023-04-16T14:13:45;16.9;54.9
78571;SHT31;67861;51.966;5.672;2023-04-16T14:16:14;16.9;54.8
78571;SHT31;67861;51.966;5.672;2023-04-16T14:18:44;16.9;54.5
78571;SHT31;67861;51.966;5.672;2023-04-16T14:21:14;17.0;54.4
78571;SHT31;67861;51.966;5.672;2023-04-16T14:23:43;17.0;54.8
78571;SHT31;67861;51.966;5.672;2023-04-16T14:26:13;17.0;54.3
78571;SHT31;67861;51.966;5.672;2023-04-16T14:28:43;16.9;54.5
78571;SHT31;67861;51.966;5.672;2023-04-16T14:31:14;16.9;54.0
78571;SHT31;67861;51.966;5.672;2023-04-16T14:33:46;16.9;54.5
78571;SHT31;67861;51.966;5.672;2023-04-16T14:36:15;16.8;54.4
78571;SHT31;67861;51.966;5.672;2023-04-16T14:38:46;16.8;54.8
78571;SHT31;67861;51.966;5.672;2023-04-16T14:41:15;16.7;55.6
78571;SHT31;67861;51.966;5.672;2023-04-16T14:43:47;16.7;55.9
78571;SHT31;67861;51.966;5.672;2023-04-16T14:46:16;16.6;56.1
78571;SHT31;67861;51.966;5.672;2023-04-16T14:48:46;16.6;56.1
78571;SHT31;67861;51.966;5.672;2023-04-16T14:51:16;16.6;55.2
78571;SHT31;67861;51.966;5.672;2023-04-16T14:53:45;16.6;56.3
78571;SHT31;67861;51.966;5.672;2023-04-16T14:56:14;16.6;56.0
78571;SHT31;67861;51.966;5.672;2023-04-16T14:58:44;16.6;56.9
78571;SHT31;67861;51.966;5.672;2023-04-16T15:01:16;16.6;56.2
78571;SHT31;67861;51.966;5.672;2023-04-16T15:03:47;16.6;55.8
78571;SHT31;67861;51.966;5.672;2023-04-16T15:06:19;16.6;55.5
78571;SHT31;67861;51.966;5.672;2023-04-16T15:08:50;16.6;55.8
78571;SHT31;67861;51.966;5.672;2023-04-16T15:11:20;16.6;55.4
78571;SHT31;67861;51.966;5.672;2023-04-16T15:13:49;16.6;55.5
78571;SHT31;67861;51.966;5.672;2023-04-16T15:16:22;16.6;55.3
78571;SHT31;67861;51.966;5.672;2023-04-16T15:18:52;16.6;56.2
78571;SHT31;67861;51.966;5.672;2023-04-16T15:21:21;16.6;56.3
78571;SHT31;67861;51.966;5.672;2023-04-16T15:23:51;16.6;55.8
78571;SHT31;67861;51.966;5.672;2023-04-16T15:26:20;16.6;55.4
78571;SHT31;67861;51.966;5.672;2023-04-16T15:28:50;16.6;55.0
78571;SHT31;67861;51.966;5.672;2023-04-16T15:31:19;16.5;55.0
78571;SHT31;67861;51.966;5.672;2023-04-16T15:33:49;16.5;54.9
78571;SHT31;67861;51.966;5.672;2023-04-16T15:36:18;16.4;55.3
78571;SHT31;67861;51.966;5.672;2023-04-16T15:38:48;16.4;55.2
78571;SHT31;67861;51.966;5.672;2023-04-16T15:41:19;16.3;55.5
78571;SHT31;67861;51.966;5.672;2023-04-16T15:43:49;16.3;56.5
78571;SHT31;67861;51.966;5.672;2023-04-16T15:46:18;16.3;55.7
78571;SHT31;67861;51.966;5.672;2023-04-16T15:48:50;16.3;56.5
78571;SHT31;67861;51.966;5.672;2023-04-16T15:51:19;16.2;56.2
78571;SHT31;67861;51.966;5.672;2023-04-16T15:53:49;16.2;56.5
78571;SHT31;67861;51.966;5.672;2023-04-16T15:56:19;16.2;56.4
78571;SHT31;67861;51.966;5.672;2023-04-16T15:58:49;16.2;56.7
78571;SHT31;67861;51.966;5.672;2023-04-16T16:01:18;16.2;57.2
78571;SHT31;67861;51.966;5.672;2023-04-16T16:03:48;16.2;57.3
78571;SHT31;67861;51.966;5.672;2023-04-16T16:06:19;16.3;57.0
78571;SHT31;67861;51.966;5.672;2023-04-16T16:08:49;16.3;57.4
78571;SHT31;67861;51.966;5.672;2023-04-16T16:11:21;16.3;56.7
78571;SHT31;67861;51.966;5.672;2023-04-16T16:13:50;16.4;57.1
78571;SHT31;67861;51.966;5.672;2023-04-16T16:16:20;16.4;57.0
78571;SHT31;67861;51.966;5.672;2023-04-16T16:18:49;16.4;56.7
78571;SHT31;67861;51.966;5.672;2023-04-16T16:21:19;16.5;56.5
78571;SHT31;67861;51.966;5.672;2023-04-16T16:23:49;16.5;55.9
78571;SHT31;67861;51.966;5.672;2023-04-16T16:26:22;16.5;56.0